sensor_id;sensor_type;location;lat;lon;timestamp;P1;durP1;ratioP1;P2;durP2;ratioP2
71127;SDS011;59249;59.736;30.568;2023-05-02T00:00:24;1.55;;;0.20;;
71127;SDS011;59249;59.736;30.568;2023-05-02T00:02:52;5.68;;;0.60;;
71127;SDS011;59249;59.736;30.568;2023-05-02T00:05:22;2.13;;;0.40;;
71127;SDS011;59249;59.736;30.568;2023-05-02T00:07:51;0.93;;;0.20;;
71127;SDS011;59249;59.736;30.568;2023-05-02T00:10:19;1.85;;;0.38;;
71127;SDS011;59249;59.736;30.568;2023-05-02T00:12:48;3.13;;;0.93;;
71127;SDS011;59249;59.736;30.568;2023-05-02T00:15:18;2.08;;;0.38;;
71127;SDS011;59249;59.736;30.568;2023-05-02T00:17:48;2.07;;;0.30;;
71127;SDS011;59249;59.736;30.568;2023-05-02T00:20:17;1.52;;;0.30;;
71127;SDS011;59249;59.736;30.568;2023-05-02T00:22:47;2.40;;;0.40;;
71127;SDS011;59249;59.736;30.568;2023-05-02T00:25:16;1.45;;;0.38;;
71127;SDS011;59249;59.736;30.568;2023-05-02T00:27:45;1.70;;;0.40;;
71127;SDS011;59249;59.736;30.568;2023-05-02T00:30:16;1.47;;;0.40;;
71127;SDS011;59249;59.736;30.568;2023-05-02T00:32:47;1.40;;;0.35;;
71127;SDS011;59249;59.736;30.568;2023-05-02T00:35:16;1.83;;;0.40;;
71127;SDS011;59249;59.736;30.568;2023-05-02T00:37:45;1.75;;;0.30;;
71127;SDS011;59249;59.736;30.568;2023-05-02T00:40:14;2.63;;;0.45;;
71127;SDS011;59249;59.736;30.568;2023-05-02T00:42:45;3.87;;;0.63;;
71127;SDS011;59249;59.736;30.568;2023-05-02T00:45:14;3.65;;;0.60;;
71127;SDS011;59249;59.736;30.568;2023-05-02T00:47:47;1.92;;;0.38;;
71127;SDS011;59249;59.736;30.568;2023-05-02T00:50:19;3.28;;;0.60;;
71127;SDS011;59249;59.736;30.568;2023-05-02T00:52:49;1.90;;;0.50;;
71127;SDS011;59249;59.736;30.568;2023-05-02T00:55:18;4.63;;;0.50;;
71127;SDS011;59249;59.736;30.568;2023-05-02T00:57:50;3.85;;;0.60;;
71127;SDS011;59249;59.736;30.568;2023-05-02T01:00:20;3.33;;;0.55;;
71127;SDS011;59249;59.736;30.568;2023-05-02T01:03:01;3.30;;;0.50;;
71127;SDS011;59249;59.736;30.568;2023-05-02T01:05:46;2.42;;;0.50;;
71127;SDS011;59249;59.736;30.568;2023-05-02T01:08:28;3.13;;;0.60;;
71127;SDS011;59249;59.736;30.568;2023-05-02T01:11:12;2.60;;;0.50;;
71127;SDS011;59249;59.736;30.568;2023-05-02T01:13:53;3.83;;;0.73;;
71127;SDS011;59249;59.736;30.568;2023-05-02T01:16:28;2.83;;;0.63;;
71127;SDS011;59249;59.736;30.568;2023-05-02T01:19:03;4.93;;;0.98;;
71127;SDS011;59249;59.736;30.568;2023-05-02T01:21:47;3.23;;;0.70;;
71127;SDS011;59249;59.736;30.568;2023-05-02T01:24:24;2.28;;;0.65;;
71127;SDS011;59249;59.736;30.568;2023-05-02T01:27:03;2.53;;;0.80;;
71127;SDS011;59249;59.736;30.568;2023-05-02T01:29:55;3.50;;;0.40;;
71127;SDS011;59249;59.736;30.568;2023-05-02T01:32:33;3.08;;;0.88;;
71127;SDS011;59249;59.736;30.568;2023-05-02T01:35:12;3.20;;;0.77;;
71127;SDS011;59249;59.736;30.568;2023-05-02T01:37:50;4.00;;;0.80;;
71127;SDS011;59249;59.736;30.568;2023-05-02T01:40:32;2.60;;;0.70;;
71127;SDS011;59249;59.736;30.568;2023-05-02T01:43:22;4.32;;;0.80;;
71127;SDS011;59249;59.736;30.568;2023-05-02T01:46:12;3.67;;;1.13;;
71127;SDS011;59249;59.736;30.568;2023-05-02T01:48:45;2.83;;;0.73;;
71127;SDS011;59249;59.736;30.568;2023-05-02T01:51:21;3.13;;;0.82;;
71127;SDS011;59249;59.736;30.568;2023-05-02T01:54:10;3.13;;;0.75;;
71127;SDS011;59249;59.736;30.568;2023-05-02T01:56:57;3.28;;;0.90;;
71127;SDS011;59249;59.736;30.568;2023-05-02T01:59:34;3.53;;;0.85;;
71127;SDS011;59249;59.736;30.568;2023-05-02T02:04:58;3.28;;;1.35;;
71127;SDS011;59249;59.736;30.568;2023-05-02T02:07:29;3.72;;;1.00;;
71127;SDS011;59249;59.736;30.568;2023-05-02T02:10:01;5.47;;;1.05;;
71127;SDS011;59249;59.736;30.568;2023-05-02T02:12:34;3.42;;;1.10;;
71127;SDS011;59249;59.736;30.568;2023-05-02T02:15:12;4.40;;;1.10;;
71127;SDS011;59249;59.736;30.568;2023-05-02T02:17:52;5.25;;;1.40;;
71127;SDS011;59249;59.736;30.568;2023-05-02T02:20:30;3.58;;;1.00;;
71127;SDS011;59249;59.736;30.568;2023-05-02T02:23:02;3.20;;;0.98;;
71127;SDS011;59249;59.736;30.568;2023-05-02T02:25:40;6.32;;;1.30;;
71127;SDS011;59249;59.736;30.568;2023-05-02T02:28:22;3.57;;;1.03;;
71127;SDS011;59249;59.736;30.568;2023-05-02T02:31:07;5.53;;;1.40;;
71127;SDS011;59249;59.736;30.568;2023-05-02T02:33:41;3.97;;;1.27;;
71127;SDS011;59249;59.736;30.568;2023-05-02T02:36:17;4.47;;;1.70;;
71127;SDS011;59249;59.736;30.568;2023-05-02T02:39:17;4.43;;;1.20;;
71127;SDS011;59249;59.736;30.568;2023-05-02T02:42:12;5.47;;;1.13;;
71127;SDS011;59249;59.736;30.568;2023-05-02T02:44:54;7.28;;;1.80;;
71127;SDS011;59249;59.736;30.568;2023-05-02T02:47:43;4.50;;;1.48;;
71127;SDS011;59249;59.736;30.568;2023-05-02T02:50:29;6.60;;;1.65;;
71127;SDS011;59249;59.736;30.568;2023-05-02T02:53:04;5.22;;;1.30;;
71127;SDS011;59249;59.736;30.568;2023-05-02T02:55:43;6.87;;;1.57;;
71127;SDS011;59249;59.736;30.568;2023-05-02T02:58:29;6.65;;;1.73;;
71127;SDS011;59249;59.736;30.568;2023-05-02T03:01:09;6.45;;;1.42;;
71127;SDS011;59249;59.736;30.568;2023-05-02T03:03:47;6.25;;;1.80;;
71127;SDS011;59249;59.736;30.568;2023-05-02T03:06:37;5.85;;;2.13;;
71127;SDS011;59249;59.736;30.568;2023-05-02T03:09:13;4.47;;;1.77;;
71127;SDS011;59249;59.736;30.568;2023-05-02T03:11:48;7.63;;;2.10;;
71127;SDS011;59249;59.736;30.568;2023-05-02T03:14:26;6.38;;;1.98;;
71127;SDS011;59249;59.736;30.568;2023-05-02T03:17:06;5.80;;;1.98;;
71127;SDS011;59249;59.736;30.568;2023-05-02T03:19:42;5.90;;;2.30;;
71127;SDS011;59249;59.736;30.568;2023-05-02T03:22:15;5.47;;;1.90;;
71127;SDS011;59249;59.736;30.568;2023-05-02T03:24:46;5.60;;;2.10;;
71127;SDS011;59249;59.736;30.568;2023-05-02T03:27:16;5.47;;;1.80;;
71127;SDS011;59249;59.736;30.568;2023-05-02T03:29:51;7.38;;;2.17;;
71127;SDS011;59249;59.736;30.568;2023-05-02T03:32:21;8.07;;;2.50;;
71127;SDS011;59249;59.736;30.568;2023-05-02T03:35:03;6.77;;;2.50;;
71127;SDS011;59249;59.736;30.568;2023-05-02T03:37:44;5.25;;;1.80;;
71127;SDS011;59249;59.736;30.568;2023-05-02T03:40:14;6.18;;;2.20;;
71127;SDS011;59249;59.736;30.568;2023-05-02T03:42:49;3.58;;;1.15;;
71127;SDS011;59249;59.736;30.568;2023-05-02T03:45:28;7.03;;;2.58;;
71127;SDS011;59249;59.736;30.568;2023-05-02T03:47:58;6.13;;;2.10;;
71127;SDS011;59249;59.736;30.568;2023-05-02T03:50:29;5.63;;;1.73;;
71127;SDS011;59249;59.736;30.568;2023-05-02T03:52:59;8.63;;;2.53;;
71127;SDS011;59249;59.736;30.568;2023-05-02T03:55:39;6.50;;;1.90;;
71127;SDS011;59249;59.736;30.568;2023-05-02T03:58:15;7.90;;;2.50;;
71127;SDS011;59249;59.736;30.568;2023-05-02T04:00:45;8.17;;;1.87;;
71127;SDS011;59249;59.736;30.568;2023-05-02T04:03:16;5.35;;;2.03;;
71127;SDS011;59249;59.736;30.568;2023-05-02T04:05:45;7.82;;;2.45;;
71127;SDS011;59249;59.736;30.568;2023-05-02T04:08:18;7.75;;;2.38;;
71127;SDS011;59249;59.736;30.568;2023-05-02T04:10:50;4.68;;;1.70;;
71127;SDS011;59249;59.736;30.568;2023-05-02T04:13:20;7.57;;;1.70;;
71127;SDS011;59249;59.736;30.568;2023-05-02T04:15:50;8.40;;;1.80;;
71127;SDS011;59249;59.736;30.568;2023-05-02T04:18:21;6.30;;;2.50;;
71127;SDS011;59249;59.736;30.568;2023-05-02T04:20:51;4.90;;;1.95;;
71127;SDS011;59249;59.736;30.568;2023-05-02T04:23:33;5.45;;;1.73;;
71127;SDS011;59249;59.736;30.568;2023-05-02T04:26:17;6.27;;;1.30;;
71127;SDS011;59249;59.736;30.568;2023-05-02T04:29:12;5.25;;;1.30;;
71127;SDS011;59249;59.736;30.568;2023-05-02T04:31:43;5.65;;;1.73;;
71127;SDS011;59249;59.736;30.568;2023-05-02T04:34:22;5.72;;;1.70;;
71127;SDS011;59249;59.736;30.568;2023-05-02T04:37:01;5.57;;;1.88;;
71127;SDS011;59249;59.736;30.568;2023-05-02T04:40:07;6.13;;;1.87;;
71127;SDS011;59249;59.736;30.568;2023-05-02T04:42:46;6.50;;;1.60;;
71127;SDS011;59249;59.736;30.568;2023-05-02T04:45:22;4.18;;;1.80;;
71127;SDS011;59249;59.736;30.568;2023-05-02T04:48:18;6.28;;;1.63;;
71127;SDS011;59249;59.736;30.568;2023-05-02T04:50:53;5.45;;;1.67;;
71127;SDS011;59249;59.736;30.568;2023-05-02T04:53:26;6.40;;;1.77;;
71127;SDS011;59249;59.736;30.568;2023-05-02T04:56:11;5.88;;;1.98;;
71127;SDS011;59249;59.736;30.568;2023-05-02T04:58:41;5.20;;;1.60;;
71127;SDS011;59249;59.736;30.568;2023-05-02T05:01:18;6.25;;;1.70;;
71127;SDS011;59249;59.736;30.568;2023-05-02T05:04:02;6.40;;;1.75;;
71127;SDS011;59249;59.736;30.568;2023-05-02T05:06:35;4.03;;;1.50;;
71127;SDS011;59249;59.736;30.568;2023-05-02T05:09:26;5.05;;;1.50;;
71127;SDS011;59249;59.736;30.568;2023-05-02T05:12:03;4.30;;;1.45;;
71127;SDS011;59249;59.736;30.568;2023-05-02T05:14:37;5.25;;;1.50;;
71127;SDS011;59249;59.736;30.568;2023-05-02T05:17:07;7.65;;;1.73;;
71127;SDS011;59249;59.736;30.568;2023-05-02T05:19:41;4.90;;;1.50;;
71127;SDS011;59249;59.736;30.568;2023-05-02T05:22:57;4.72;;;1.73;;
71127;SDS011;59249;59.736;30.568;2023-05-02T05:25:36;5.32;;;1.38;;
71127;SDS011;59249;59.736;30.568;2023-05-02T05:28:25;4.38;;;1.30;;
71127;SDS011;59249;59.736;30.568;2023-05-02T05:30:56;4.25;;;1.60;;
71127;SDS011;59249;59.736;30.568;2023-05-02T05:33:27;4.60;;;1.30;;
71127;SDS011;59249;59.736;30.568;2023-05-02T05:36:10;5.63;;;1.90;;
71127;SDS011;59249;59.736;30.568;2023-05-02T05:38:42;5.05;;;1.65;;
71127;SDS011;59249;59.736;30.568;2023-05-02T05:41:13;5.25;;;1.30;;
71127;SDS011;59249;59.736;30.568;2023-05-02T05:43:48;6.50;;;1.50;;
71127;SDS011;59249;59.736;30.568;2023-05-02T05:46:18;4.77;;;1.33;;
71127;SDS011;59249;59.736;30.568;2023-05-02T05:48:48;4.88;;;1.17;;
71127;SDS011;59249;59.736;30.568;2023-05-02T05:51:23;5.68;;;1.35;;
71127;SDS011;59249;59.736;30.568;2023-05-02T05:53:57;4.65;;;1.35;;
71127;SDS011;59249;59.736;30.568;2023-05-02T05:56:42;3.13;;;1.25;;
71127;SDS011;59249;59.736;30.568;2023-05-02T05:59:24;5.17;;;1.23;;
71127;SDS011;59249;59.736;30.568;2023-05-02T06:01:58;7.28;;;1.83;;
71127;SDS011;59249;59.736;30.568;2023-05-02T06:04:31;5.30;;;1.10;;
71127;SDS011;59249;59.736;30.568;2023-05-02T06:07:04;4.70;;;1.17;;
71127;SDS011;59249;59.736;30.568;2023-05-02T06:09:42;4.60;;;1.67;;
71127;SDS011;59249;59.736;30.568;2023-05-02T06:12:29;4.47;;;1.53;;
71127;SDS011;59249;59.736;30.568;2023-05-02T06:15:02;4.97;;;1.52;;
71127;SDS011;59249;59.736;30.568;2023-05-02T06:17:35;5.30;;;0.98;;
71127;SDS011;59249;59.736;30.568;2023-05-02T06:20:07;4.65;;;1.50;;
71127;SDS011;59249;59.736;30.568;2023-05-02T06:22:36;4.63;;;1.33;;
71127;SDS011;59249;59.736;30.568;2023-05-02T06:25:07;6.90;;;1.47;;
71127;SDS011;59249;59.736;30.568;2023-05-02T06:27:36;6.20;;;1.20;;
71127;SDS011;59249;59.736;30.568;2023-05-02T06:30:09;4.18;;;1.20;;
71127;SDS011;59249;59.736;30.568;2023-05-02T06:32:38;3.72;;;1.10;;
71127;SDS011;59249;59.736;30.568;2023-05-02T06:35:12;4.13;;;1.33;;
71127;SDS011;59249;59.736;30.568;2023-05-02T06:37:41;4.93;;;1.23;;
71127;SDS011;59249;59.736;30.568;2023-05-02T06:40:29;6.10;;;1.73;;
71127;SDS011;59249;59.736;30.568;2023-05-02T06:43:11;5.95;;;1.30;;
71127;SDS011;59249;59.736;30.568;2023-05-02T06:45:51;7.68;;;1.80;;
71127;SDS011;59249;59.736;30.568;2023-05-02T06:48:22;5.35;;;1.63;;
71127;SDS011;59249;59.736;30.568;2023-05-02T06:50:53;4.57;;;1.23;;
71127;SDS011;59249;59.736;30.568;2023-05-02T06:53:22;4.53;;;1.50;;
71127;SDS011;59249;59.736;30.568;2023-05-02T06:55:56;9.82;;;2.50;;
71127;SDS011;59249;59.736;30.568;2023-05-02T06:58:29;5.90;;;1.70;;
71127;SDS011;59249;59.736;30.568;2023-05-02T07:01:00;7.30;;;1.55;;
71127;SDS011;59249;59.736;30.568;2023-05-02T07:03:37;6.70;;;1.90;;
71127;SDS011;59249;59.736;30.568;2023-05-02T07:06:11;4.78;;;1.35;;
71127;SDS011;59249;59.736;30.568;2023-05-02T07:08:40;4.82;;;1.20;;
71127;SDS011;59249;59.736;30.568;2023-05-02T07:11:15;6.03;;;1.50;;
71127;SDS011;59249;59.736;30.568;2023-05-02T07:13:44;3.70;;;1.40;;
71127;SDS011;59249;59.736;30.568;2023-05-02T07:16:20;5.77;;;1.40;;
71127;SDS011;59249;59.736;30.568;2023-05-02T07:18:50;5.25;;;1.35;;
71127;SDS011;59249;59.736;30.568;2023-05-02T07:21:25;8.05;;;1.90;;
71127;SDS011;59249;59.736;30.568;2023-05-02T07:23:59;7.60;;;1.50;;
71127;SDS011;59249;59.736;30.568;2023-05-02T07:26:30;9.75;;;1.70;;
71127;SDS011;59249;59.736;30.568;2023-05-02T07:29:01;6.00;;;1.70;;
71127;SDS011;59249;59.736;30.568;2023-05-02T07:31:33;6.28;;;1.98;;
71127;SDS011;59249;59.736;30.568;2023-05-02T07:34:03;6.85;;;2.33;;
71127;SDS011;59249;59.736;30.568;2023-05-02T07:36:32;4.50;;;1.38;;
71127;SDS011;59249;59.736;30.568;2023-05-02T07:39:08;7.25;;;2.83;;
71127;SDS011;59249;59.736;30.568;2023-05-02T07:41:41;4.80;;;1.30;;
71127;SDS011;59249;59.736;30.568;2023-05-02T07:44:34;6.22;;;1.58;;
71127;SDS011;59249;59.736;30.568;2023-05-02T07:47:35;7.15;;;1.67;;
71127;SDS011;59249;59.736;30.568;2023-05-02T07:50:15;4.55;;;1.60;;
71127;SDS011;59249;59.736;30.568;2023-05-02T07:52:58;6.88;;;1.67;;
71127;SDS011;59249;59.736;30.568;2023-05-02T07:55:28;8.00;;;1.60;;
71127;SDS011;59249;59.736;30.568;2023-05-02T07:58:01;4.57;;;1.60;;
71127;SDS011;59249;59.736;30.568;2023-05-02T08:00:46;4.38;;;1.60;;
71127;SDS011;59249;59.736;30.568;2023-05-02T08:03:19;5.18;;;1.50;;
71127;SDS011;59249;59.736;30.568;2023-05-02T08:05:59;4.28;;;1.48;;
71127;SDS011;59249;59.736;30.568;2023-05-02T08:08:30;4.00;;;1.13;;
71127;SDS011;59249;59.736;30.568;2023-05-02T08:11:02;5.97;;;1.40;;
71127;SDS011;59249;59.736;30.568;2023-05-02T08:13:34;8.05;;;1.30;;
71127;SDS011;59249;59.736;30.568;2023-05-02T08:16:06;6.18;;;1.40;;
71127;SDS011;59249;59.736;30.568;2023-05-02T08:18:39;5.82;;;1.52;;
71127;SDS011;59249;59.736;30.568;2023-05-02T08:21:08;4.50;;;1.50;;
71127;SDS011;59249;59.736;30.568;2023-05-02T08:23:39;5.28;;;1.33;;
71127;SDS011;59249;59.736;30.568;2023-05-02T08:26:13;6.03;;;1.45;;
71127;SDS011;59249;59.736;30.568;2023-05-02T08:28:44;7.15;;;1.48;;
71127;SDS011;59249;59.736;30.568;2023-05-02T08:31:13;3.08;;;1.13;;
71127;SDS011;59249;59.736;30.568;2023-05-02T08:33:43;4.93;;;1.63;;
71127;SDS011;59249;59.736;30.568;2023-05-02T08:36:15;6.15;;;1.35;;
71127;SDS011;59249;59.736;30.568;2023-05-02T08:38:47;3.25;;;1.10;;
71127;SDS011;59249;59.736;30.568;2023-05-02T08:41:18;6.78;;;1.50;;
71127;SDS011;59249;59.736;30.568;2023-05-02T08:43:47;5.20;;;1.15;;
71127;SDS011;59249;59.736;30.568;2023-05-02T08:46:19;4.43;;;1.03;;
71127;SDS011;59249;59.736;30.568;2023-05-02T08:48:52;11.10;;;1.38;;
71127;SDS011;59249;59.736;30.568;2023-05-02T08:51:35;5.30;;;1.58;;
71127;SDS011;59249;59.736;30.568;2023-05-02T08:54:08;4.97;;;1.10;;
71127;SDS011;59249;59.736;30.568;2023-05-02T08:56:52;4.60;;;1.25;;
71127;SDS011;59249;59.736;30.568;2023-05-02T08:59:25;6.20;;;1.30;;
71127;SDS011;59249;59.736;30.568;2023-05-02T09:02:04;3.47;;;1.00;;
71127;SDS011;59249;59.736;30.568;2023-05-02T09:04:50;5.18;;;1.40;;
71127;SDS011;59249;59.736;30.568;2023-05-02T09:07:31;3.95;;;1.10;;
71127;SDS011;59249;59.736;30.568;2023-05-02T09:10:16;5.45;;;1.13;;
71127;SDS011;59249;59.736;30.568;2023-05-02T09:12:55;5.70;;;1.37;;
71127;SDS011;59249;59.736;30.568;2023-05-02T09:15:24;5.60;;;1.17;;
71127;SDS011;59249;59.736;30.568;2023-05-02T09:17:55;6.05;;;1.10;;
71127;SDS011;59249;59.736;30.568;2023-05-02T09:20:26;3.28;;;1.00;;
71127;SDS011;59249;59.736;30.568;2023-05-02T09:22:58;3.38;;;1.00;;
71127;SDS011;59249;59.736;30.568;2023-05-02T09:25:36;3.73;;;1.13;;
71127;SDS011;59249;59.736;30.568;2023-05-02T09:28:05;5.07;;;1.25;;
71127;SDS011;59249;59.736;30.568;2023-05-02T09:30:33;5.28;;;1.00;;
71127;SDS011;59249;59.736;30.568;2023-05-02T09:36:07;4.43;;;1.48;;
71127;SDS011;59249;59.736;30.568;2023-05-02T09:38:41;4.83;;;1.13;;
71127;SDS011;59249;59.736;30.568;2023-05-02T09:41:11;3.67;;;1.05;;
71127;SDS011;59249;59.736;30.568;2023-05-02T09:43:40;6.43;;;1.05;;
71127;SDS011;59249;59.736;30.568;2023-05-02T09:46:10;6.93;;;0.90;;
71127;SDS011;59249;59.736;30.568;2023-05-02T09:48:50;6.50;;;1.20;;
71127;SDS011;59249;59.736;30.568;2023-05-02T09:51:27;4.60;;;1.40;;
71127;SDS011;59249;59.736;30.568;2023-05-02T09:54:03;4.20;;;0.82;;
71127;SDS011;59249;59.736;30.568;2023-05-02T09:56:36;2.25;;;0.80;;
71127;SDS011;59249;59.736;30.568;2023-05-02T09:59:23;4.00;;;0.88;;
71127;SDS011;59249;59.736;30.568;2023-05-02T10:02:01;3.78;;;1.30;;
71127;SDS011;59249;59.736;30.568;2023-05-02T10:04:40;3.97;;;0.87;;
71127;SDS011;59249;59.736;30.568;2023-05-02T10:07:27;2.95;;;1.15;;
71127;SDS011;59249;59.736;30.568;2023-05-02T10:10:02;3.15;;;1.02;;
71127;SDS011;59249;59.736;30.568;2023-05-02T10:12:34;4.32;;;0.60;;
71127;SDS011;59249;59.736;30.568;2023-05-02T10:15:07;3.95;;;0.90;;
71127;SDS011;59249;59.736;30.568;2023-05-02T10:17:46;3.93;;;1.07;;
71127;SDS011;59249;59.736;30.568;2023-05-02T10:20:20;3.58;;;1.13;;
71127;SDS011;59249;59.736;30.568;2023-05-02T10:22:59;4.07;;;1.30;;
71127;SDS011;59249;59.736;30.568;2023-05-02T10:25:28;4.45;;;1.00;;
71127;SDS011;59249;59.736;30.568;2023-05-02T10:27:59;4.03;;;1.17;;
71127;SDS011;59249;59.736;30.568;2023-05-02T10:30:30;4.17;;;1.03;;
71127;SDS011;59249;59.736;30.568;2023-05-02T10:33:05;5.63;;;1.33;;
71127;SDS011;59249;59.736;30.568;2023-05-02T10:35:34;6.40;;;1.27;;
71127;SDS011;59249;59.736;30.568;2023-05-02T10:38:07;3.88;;;1.08;;
71127;SDS011;59249;59.736;30.568;2023-05-02T10:40:40;3.60;;;1.08;;
71127;SDS011;59249;59.736;30.568;2023-05-02T10:43:22;4.20;;;0.90;;
71127;SDS011;59249;59.736;30.568;2023-05-02T10:45:59;3.45;;;0.95;;
71127;SDS011;59249;59.736;30.568;2023-05-02T10:48:30;3.08;;;0.75;;
71127;SDS011;59249;59.736;30.568;2023-05-02T10:51:00;4.22;;;0.70;;
71127;SDS011;59249;59.736;30.568;2023-05-02T10:53:34;4.95;;;0.85;;
71127;SDS011;59249;59.736;30.568;2023-05-02T10:56:15;4.27;;;1.20;;
71127;SDS011;59249;59.736;30.568;2023-05-02T10:59:24;4.57;;;1.20;;
71127;SDS011;59249;59.736;30.568;2023-05-02T11:05:20;2.92;;;0.80;;
71127;SDS011;59249;59.736;30.568;2023-05-02T11:14:10;3.25;;;1.20;;
71127;SDS011;59249;59.736;30.568;2023-05-02T11:17:14;4.93;;;1.10;;
71127;SDS011;59249;59.736;30.568;2023-05-02T11:22:57;4.90;;;0.90;;
71127;SDS011;59249;59.736;30.568;2023-05-02T11:25:53;4.87;;;1.00;;
71127;SDS011;59249;59.736;30.568;2023-05-02T11:28:41;3.95;;;0.88;;
71127;SDS011;59249;59.736;30.568;2023-05-02T11:34:58;3.63;;;1.00;;
71127;SDS011;59249;59.736;30.568;2023-05-02T11:37:29;2.97;;;0.77;;
71127;SDS011;59249;59.736;30.568;2023-05-02T11:40:08;4.23;;;0.80;;
71127;SDS011;59249;59.736;30.568;2023-05-02T11:42:38;2.92;;;0.98;;
71127;SDS011;59249;59.736;30.568;2023-05-02T11:45:20;4.68;;;0.95;;
71127;SDS011;59249;59.736;30.568;2023-05-02T11:48:03;5.35;;;0.90;;
71127;SDS011;59249;59.736;30.568;2023-05-02T11:50:40;4.00;;;0.70;;
71127;SDS011;59249;59.736;30.568;2023-05-02T11:53:17;3.63;;;0.60;;
71127;SDS011;59249;59.736;30.568;2023-05-02T11:56:04;3.25;;;0.80;;
71127;SDS011;59249;59.736;30.568;2023-05-02T11:58:48;3.45;;;0.80;;
71127;SDS011;59249;59.736;30.568;2023-05-02T12:01:28;4.47;;;1.10;;
71127;SDS011;59249;59.736;30.568;2023-05-02T12:04:01;3.60;;;1.05;;
71127;SDS011;59249;59.736;30.568;2023-05-02T12:06:34;8.50;;;0.90;;
71127;SDS011;59249;59.736;30.568;2023-05-02T12:09:21;4.68;;;0.85;;
71127;SDS011;59249;59.736;30.568;2023-05-02T12:11:58;6.18;;;1.08;;
71127;SDS011;59249;59.736;30.568;2023-05-02T12:14:27;3.38;;;0.80;;
71127;SDS011;59249;59.736;30.568;2023-05-02T12:17:02;6.15;;;1.05;;
71127;SDS011;59249;59.736;30.568;2023-05-02T12:19:36;2.20;;;0.70;;
71127;SDS011;59249;59.736;30.568;2023-05-02T12:22:08;5.45;;;0.80;;
71127;SDS011;59249;59.736;30.568;2023-05-02T12:24:39;3.75;;;0.85;;
71127;SDS011;59249;59.736;30.568;2023-05-02T12:27:12;3.88;;;0.82;;
71127;SDS011;59249;59.736;30.568;2023-05-02T12:29:46;5.55;;;1.00;;
71127;SDS011;59249;59.736;30.568;2023-05-02T12:32:36;7.03;;;1.00;;
71127;SDS011;59249;59.736;30.568;2023-05-02T12:35:20;4.95;;;1.25;;
71127;SDS011;59249;59.736;30.568;2023-05-02T12:37:49;14.13;;;1.42;;
71127;SDS011;59249;59.736;30.568;2023-05-02T12:40:36;8.73;;;0.85;;
71127;SDS011;59249;59.736;30.568;2023-05-02T12:43:06;3.47;;;0.68;;
71127;SDS011;59249;59.736;30.568;2023-05-02T12:45:40;4.00;;;0.70;;
71127;SDS011;59249;59.736;30.568;2023-05-02T12:51:20;5.63;;;1.35;;
71127;SDS011;59249;59.736;30.568;2023-05-02T12:53:51;3.90;;;0.70;;
71127;SDS011;59249;59.736;30.568;2023-05-02T12:56:21;5.82;;;0.90;;
71127;SDS011;59249;59.736;30.568;2023-05-02T12:58:53;4.97;;;0.83;;
71127;SDS011;59249;59.736;30.568;2023-05-02T13:01:26;4.97;;;1.00;;
71127;SDS011;59249;59.736;30.568;2023-05-02T13:03:57;5.78;;;0.90;;
71127;SDS011;59249;59.736;30.568;2023-05-02T13:06:42;7.68;;;0.80;;
71127;SDS011;59249;59.736;30.568;2023-05-02T13:09:16;8.43;;;1.00;;
71127;SDS011;59249;59.736;30.568;2023-05-02T13:11:47;8.53;;;1.30;;
71127;SDS011;59249;59.736;30.568;2023-05-02T13:14:26;4.95;;;0.98;;
71127;SDS011;59249;59.736;30.568;2023-05-02T13:16:59;3.55;;;0.80;;
71127;SDS011;59249;59.736;30.568;2023-05-02T13:19:30;4.28;;;0.80;;
71127;SDS011;59249;59.736;30.568;2023-05-02T13:22:02;6.20;;;1.05;;
71127;SDS011;59249;59.736;30.568;2023-05-02T13:24:32;4.93;;;1.40;;
71127;SDS011;59249;59.736;30.568;2023-05-02T13:27:01;3.33;;;0.70;;
71127;SDS011;59249;59.736;30.568;2023-05-02T13:29:30;4.03;;;0.88;;
71127;SDS011;59249;59.736;30.568;2023-05-02T13:31:58;7.05;;;0.80;;
71127;SDS011;59249;59.736;30.568;2023-05-02T13:34:27;11.32;;;1.33;;
71127;SDS011;59249;59.736;30.568;2023-05-02T13:36:57;3.50;;;0.93;;
71127;SDS011;59249;59.736;30.568;2023-05-02T13:39:26;4.22;;;0.90;;
71127;SDS011;59249;59.736;30.568;2023-05-02T13:41:56;3.53;;;0.70;;
71127;SDS011;59249;59.736;30.568;2023-05-02T13:44:25;4.63;;;1.13;;
71127;SDS011;59249;59.736;30.568;2023-05-02T13:46:58;4.78;;;1.40;;
71127;SDS011;59249;59.736;30.568;2023-05-02T13:49:29;2.93;;;0.77;;
71127;SDS011;59249;59.736;30.568;2023-05-02T13:52:00;3.22;;;1.00;;
71127;SDS011;59249;59.736;30.568;2023-05-02T13:54:28;3.47;;;0.65;;
71127;SDS011;59249;59.736;30.568;2023-05-02T13:56:57;2.85;;;1.00;;
71127;SDS011;59249;59.736;30.568;2023-05-02T13:59:26;7.05;;;0.90;;
71127;SDS011;59249;59.736;30.568;2023-05-02T14:01:55;7.23;;;0.90;;
71127;SDS011;59249;59.736;30.568;2023-05-02T14:04:24;5.18;;;0.70;;
71127;SDS011;59249;59.736;30.568;2023-05-02T14:07:01;5.10;;;1.67;;
71127;SDS011;59249;59.736;30.568;2023-05-02T14:09:30;2.25;;;0.52;;
71127;SDS011;59249;59.736;30.568;2023-05-02T14:12:06;2.95;;;0.50;;
71127;SDS011;59249;59.736;30.568;2023-05-02T14:14:38;5.93;;;0.90;;
71127;SDS011;59249;59.736;30.568;2023-05-02T14:17:07;4.75;;;0.90;;
71127;SDS011;59249;59.736;30.568;2023-05-02T14:19:40;4.55;;;1.02;;
71127;SDS011;59249;59.736;30.568;2023-05-02T14:22:13;3.78;;;0.80;;
71127;SDS011;59249;59.736;30.568;2023-05-02T14:24:45;5.18;;;0.85;;
71127;SDS011;59249;59.736;30.568;2023-05-02T14:27:15;4.67;;;1.30;;
71127;SDS011;59249;59.736;30.568;2023-05-02T14:29:48;2.72;;;0.45;;
71127;SDS011;59249;59.736;30.568;2023-05-02T14:32:19;2.72;;;0.80;;
71127;SDS011;59249;59.736;30.568;2023-05-02T14:34:49;4.55;;;0.70;;
71127;SDS011;59249;59.736;30.568;2023-05-02T14:37:24;4.47;;;0.85;;
71127;SDS011;59249;59.736;30.568;2023-05-02T14:39:53;4.80;;;0.60;;
71127;SDS011;59249;59.736;30.568;2023-05-02T14:42:26;4.57;;;0.93;;
71127;SDS011;59249;59.736;30.568;2023-05-02T14:45:11;6.65;;;1.23;;
71127;SDS011;59249;59.736;30.568;2023-05-02T14:47:42;7.15;;;0.93;;
71127;SDS011;59249;59.736;30.568;2023-05-02T14:50:11;3.67;;;0.80;;
71127;SDS011;59249;59.736;30.568;2023-05-02T14:52:41;7.57;;;1.00;;
71127;SDS011;59249;59.736;30.568;2023-05-02T14:55:12;5.47;;;0.90;;
71127;SDS011;59249;59.736;30.568;2023-05-02T14:57:42;5.13;;;1.08;;
71127;SDS011;59249;59.736;30.568;2023-05-02T15:00:13;3.75;;;0.82;;
71127;SDS011;59249;59.736;30.568;2023-05-02T15:02:43;6.70;;;1.20;;
71127;SDS011;59249;59.736;30.568;2023-05-02T15:05:17;5.17;;;1.27;;
71127;SDS011;59249;59.736;30.568;2023-05-02T15:07:48;5.30;;;1.15;;
71127;SDS011;59249;59.736;30.568;2023-05-02T15:10:19;5.60;;;0.90;;
71127;SDS011;59249;59.736;30.568;2023-05-02T15:12:49;5.78;;;0.90;;
71127;SDS011;59249;59.736;30.568;2023-05-02T15:15:22;3.42;;;0.77;;
71127;SDS011;59249;59.736;30.568;2023-05-02T15:17:52;7.10;;;1.10;;
71127;SDS011;59249;59.736;30.568;2023-05-02T15:20:21;5.22;;;1.17;;
71127;SDS011;59249;59.736;30.568;2023-05-02T15:22:52;4.88;;;0.93;;
71127;SDS011;59249;59.736;30.568;2023-05-02T15:25:21;6.72;;;1.15;;
71127;SDS011;59249;59.736;30.568;2023-05-02T15:28:12;4.07;;;0.90;;
71127;SDS011;59249;59.736;30.568;2023-05-02T15:30:50;6.73;;;1.30;;
71127;SDS011;59249;59.736;30.568;2023-05-02T15:33:22;4.95;;;1.27;;
71127;SDS011;59249;59.736;30.568;2023-05-02T15:35:51;2.72;;;1.02;;
71127;SDS011;59249;59.736;30.568;2023-05-02T15:38:23;4.38;;;1.63;;
71127;SDS011;59249;59.736;30.568;2023-05-02T15:40:53;6.18;;;1.10;;
71127;SDS011;59249;59.736;30.568;2023-05-02T15:43:24;4.30;;;0.90;;
71127;SDS011;59249;59.736;30.568;2023-05-02T15:45:54;3.92;;;0.98;;